Latest Weather Observations for Outer Harbor (Black Pole)

IDS60801

Issued at 10:31 am CST Tuesday 16 August 2022 (issued every 10 minutes, with the page automatically refreshed every 10 minutes)

About weather observations | Map of weather stations | Latest weather observations for SA | Other Formats
Station Details ID: 023052 Name: BLACK POLE Lat: -34.73 Lon: 138.47 Height: 6.27 m
Data from the previous 72 hours. | See also: Recent months for locations in South Australia
Date/Time
CST
Temp
°C
App
Temp
°C
Dew
Point
°C
Rel
Hum
%
Delta-T
°C
Wind Press
QNH
hPa
Press
MSL
hPa
Rain since
9am
mm
Dir  Spd
km/h
Gust
km/h
Spd
kts
Gust
kts
16/10:30am - - - - - SW 13 17 7 9 - - -
16/10:00am - - - - - SW 15 19 8 10 - - -
16/09:30am - - - - - SSW 20 26 11 14 - - -
16/09:00am - - - - - SSW 19 22 10 12 - - -
16/08:30am - - - - - SSW 22 26 12 14 - - -
16/08:00am - - - - - SSW 26 32 14 17 - - -
16/07:30am - - - - - SW 24 28 13 15 - - -
16/07:00am - - - - - SW 26 32 14 17 - - -
16/06:30am - - - - - WSW 26 30 14 16 - - -
16/06:00am - - - - - SW 22 28 12 15 - - -
16/05:30am - - - - - WSW 26 32 14 17 - - -
16/05:00am - - - - - WSW 22 24 12 13 - - -
16/04:30am - - - - - SW 20 24 11 13 - - -
16/04:00am - - - - - SW 22 26 12 14 - - -
16/03:30am - - - - - SW 22 26 12 14 - - -
16/03:00am - - - - - SW 22 28 12 15 - - -
16/02:30am - - - - - SW 22 26 12 14 - - -
16/02:00am - - - - - SW 22 26 12 14 - - -
16/01:30am - - - - - SW 22 26 12 14 - - -
16/01:00am - - - - - SW 24 28 13 15 - - -
16/12:30am - - - - - SW 24 30 13 16 - - -
16/12:00am - - - - - SW 22 26 12 14 - - -
 
Date/Time
CST
Temp
°C
App
Temp
°C
Dew
Point
°C
Rel
Hum
%
Delta-T
°C
Wind Press
QNH
hPa
Press
MSL
hPa
Rain since
9am
mm
Dir  Spd
km/h
Gust
km/h
Spd
kts
Gust
kts
15/11:30pm - - - - - SW 22 26 12 14 - - -
15/11:00pm - - - - - SW 22 28 12 15 - - -
15/10:30pm - - - - - WSW 17 22 9 12 - - -
15/10:00pm - - - - - SW 17 20 9 11 - - -
15/09:30pm - - - - - SSW 15 19 8 10 - - -
15/09:00pm - - - - - SW 19 22 10 12 - - -
15/08:30pm - - - - - SW 24 30 13 16 - - -
15/08:00pm - - - - - SW 22 26 12 14 - - -
15/07:30pm - - - - - SW 20 24 11 13 - - -
15/07:00pm - - - - - SW 19 22 10 12 - - -
15/06:30pm - - - - - SSW 20 24 11 13 - - -
15/06:00pm - - - - - SW 26 39 14 21 - - -
15/05:30pm - - - - - WSW 20 24 11 13 - - -
15/05:00pm - - - - - WSW 17 20 9 11 - - -
15/04:30pm - - - - - WSW 19 22 10 12 - - -
15/04:00pm - - - - - W 13 15 7 8 - - -
15/03:30pm - - - - - W 13 13 7 7 - - -
15/03:00pm - - - - - W 11 13 6 7 - - -
15/02:30pm - - - - - W 11 13 6 7 - - -
15/02:00pm - - - - - W 13 15 7 8 - - -
15/01:30pm - - - - - W 11 15 6 8 - - -
15/01:00pm - - - - - W 13 17 7 9 - - -
15/12:30pm - - - - - W 15 17 8 9 - - -
15/12:00pm - - - - - NW 13 17 7 9 - - -
15/11:30am - - - - - WNW 15 17 8 9 - - -
15/11:00am - - - - - WNW 13 15 7 8 - - -
15/10:30am - - - - - NW 11 15 6 8 - - -
15/10:00am - - - - - NW 13 15 7 8 - - -
15/09:30am - - - - - NW 13 17 7 9 - - -
15/09:00am - - - - - NW 15 17 8 9 - - -
15/08:30am - - - - - NNW 15 19 8 10 - - -
15/08:00am - - - - - NNW 17 19 9 10 - - -
15/07:30am - - - - - N 15 17 8 9 - - -
15/07:00am - - - - - N 15 17 8 9 - - -
15/06:30am - - - - - N 15 17 8 9 - - -
15/06:00am - - - - - NNW 13 15 7 8 - - -
15/05:30am - - - - - NW 19 22 10 12 - - -
15/05:00am - - - - - NW 15 20 8 11 - - -
15/04:30am - - - - - N 11 13 6 7 - - -
15/04:00am - - - - - N 9 11 5 6 - - -
15/03:30am - - - - - N 13 17 7 9 - - -
15/03:00am - - - - - N 13 15 7 8 - - -
15/02:30am - - - - - NW 17 20 9 11 - - -
15/02:00am - - - - - WNW 17 19 9 10 - - -
15/01:30am - - - - - WNW 17 22 9 12 - - -
15/01:00am - - - - - WNW 22 26 12 14 - - -
15/12:30am - - - - - NW 19 22 10 12 - - -
15/12:00am - - - - - WNW 19 22 10 12 - - -
 
Date/Time
CST
Temp
°C
App
Temp
°C
Dew
Point
°C
Rel
Hum
%
Delta-T
°C
Wind Press
QNH
hPa
Press
MSL
hPa
Rain since
9am
mm
Dir  Spd
km/h
Gust
km/h
Spd
kts
Gust
kts
14/11:30pm - - - - - NW 15 17 8 9 - - -
14/11:00pm - - - - - NW 17 22 9 12 - - -
14/10:30pm - - - - - NW 15 17 8 9 - - -
14/10:00pm - - - - - WNW 15 17 8 9 - - -
14/09:30pm - - - - - WNW 11 13 6 7 - - -
14/09:00pm - - - - - WNW 11 13 6 7 - - -
14/08:30pm - - - - - WNW 9 13 5 7 - - -
14/08:00pm - - - - - WNW 9 13 5 7 - - -
14/07:30pm - - - - - NW 4 6 2 3 - - -
14/07:00pm - - - - - W 6 7 3 4 - - -
14/06:30pm - - - - - WNW 9 11 5 6 - - -
14/06:00pm - - - - - WNW 9 13 5 7 - - -
14/05:30pm - - - - - W 9 11 5 6 - - -
14/05:00pm - - - - - WSW 9 11 5 6 - - -
14/04:30pm - - - - - SW 26 30 14 16 - - -
14/04:00pm - - - - - W 19 24 10 13 - - -
14/03:30pm - - - - - WNW 15 19 8 10 - - -
14/03:00pm - - - - - W 11 13 6 7 - - -
14/02:30pm - - - - - W 9 13 5 7 - - -
14/02:00pm - - - - - WSW 11 13 6 7 - - -
14/01:30pm - - - - - W 11 13 6 7 - - -
14/01:00pm - - - - - W 15 19 8 10 - - -
14/12:30pm - - - - - W 17 20 9 11 - - -
14/12:00pm - - - - - W 17 20 9 11 - - -
14/11:30am - - - - - W 15 19 8 10 - - -
14/11:00am - - - - - W 15 19 8 10 - - -
14/10:30am - - - - - W 19 22 10 12 - - -
14/10:00am - - - - - W 19 20 10 11 - - -
14/09:30am - - - - - W 17 20 9 11 - - -
14/09:00am - - - - - W 19 22 10 12 - - -
14/08:30am - - - - - W 20 24 11 13 - - -
14/08:00am - - - - - W 19 22 10 12 - - -
14/07:30am - - - - - W 19 24 10 13 - - -
14/07:00am - - - - - W 20 24 11 13 - - -
14/06:30am - - - - - W 17 20 9 11 - - -
14/06:00am - - - - - SW 15 19 8 10 - - -
14/05:30am - - - - - WSW 15 19 8 10 - - -
14/05:00am - - - - - WSW 19 22 10 12 - - -
14/04:30am - - - - - WSW 20 24 11 13 - - -
14/04:00am - - - - - WSW 20 24 11 13 - - -
14/03:30am - - - - - WSW 20 24 11 13 - - -
14/03:00am - - - - - WSW 20 24 11 13 - - -
14/02:30am - - - - - WSW 22 26 12 14 - - -
14/02:00am - - - - - WSW 20 24 11 13 - - -
14/01:30am - - - - - WSW 20 24 11 13 - - -
14/01:00am - - - - - WSW 22 26 12 14 - - -
14/12:30am - - - - - W 20 24 11 13 - - -
14/12:00am - - - - - WSW 20 26 11 14 - - -
 
Date/Time
CST
Temp
°C
App
Temp
°C
Dew
Point
°C
Rel
Hum
%
Delta-T
°C
Wind Press
QNH
hPa
Press
MSL
hPa
Rain since
9am
mm
Dir  Spd
km/h
Gust
km/h
Spd
kts
Gust
kts
13/11:30pm - - - - - WSW 20 24 11 13 - - -
13/11:00pm - - - - - WSW 20 24 11 13 - - -
13/10:30pm - - - - - WSW 20 24 11 13 - - -
13/10:00pm - - - - - WSW 19 24 10 13 - - -
13/09:30pm - - - - - WSW 17 20 9 11 - - -
13/09:00pm - - - - - WSW 17 20 9 11 - - -
13/08:30pm - - - - - WSW 17 20 9 11 - - -
13/08:00pm - - - - - WSW 19 22 10 12 - - -
13/07:30pm - - - - - WSW 19 22 10 12 - - -
13/07:00pm - - - - - WSW 19 22 10 12 - - -
13/06:30pm - - - - - WSW 19 22 10 12 - - -
13/06:00pm - - - - - SW 17 20 9 11 - - -
13/05:30pm - - - - - SW 19 22 10 12 - - -
13/05:00pm - - - - - SW 17 20 9 11 - - -
13/04:30pm - - - - - SW 17 20 9 11 - - -
13/04:00pm - - - - - WSW 19 20 10 11 - - -
13/03:30pm - - - - - SW 20 24 11 13 - - -
13/03:00pm - - - - - SW 20 24 11 13 - - -
13/02:30pm - - - - - WSW 20 26 11 14 - - -
13/02:00pm - - - - - SW 20 24 11 13 - - -
13/01:30pm - - - - - WSW 19 22 10 12 - - -
13/01:00pm - - - - - SW 19 22 10 12 - - -
13/12:30pm - - - - - WSW 20 26 11 14 - - -
13/12:00pm - - - - - WSW 22 26 12 14 - - -
13/11:30am - - - - - WSW 20 24 11 13 - - -
13/11:00am - - - - - WSW 26 30 14 16 - - -

Other formats

Comma delimited format used in spreadsheet applications
http://www.bom.gov.au/fwo/IDS60801/IDS60801.95675.axf

JavaScript Object Notation format (JSON) in row-major order
http://www.bom.gov.au/fwo/IDS60801/IDS60801.95675.json

Data quality

Most of these data are generated automatically and are frequently updated. Quality checks on data are not normally performed. It is possible for incorrect values to appear. Refer to information at About Latest Weather Observations and please check the disclaimer before using these data.